sensor_id;sensor_type;location;lat;lon;timestamp;P1;durP1;ratioP1;P2;durP2;ratioP2
1414;SDS011;702;49.466;11.086;2023-03-16T00:02:18;21.20;;;14.10;;
1414;SDS011;702;49.466;11.086;2023-03-16T00:04:46;19.20;;;13.90;;
1414;SDS011;702;49.466;11.086;2023-03-16T00:07:13;18.93;;;13.90;;
1414;SDS011;702;49.466;11.086;2023-03-16T00:09:41;17.53;;;12.33;;
1414;SDS011;702;49.466;11.086;2023-03-16T00:12:10;21.03;;;13.57;;
1414;SDS011;702;49.466;11.086;2023-03-16T00:14:42;16.43;;;11.80;;
1414;SDS011;702;49.466;11.086;2023-03-16T00:17:11;15.73;;;12.27;;
1414;SDS011;702;49.466;11.086;2023-03-16T00:19:44;19.17;;;12.33;;
1414;SDS011;702;49.466;11.086;2023-03-16T00:22:13;16.27;;;11.83;;
1414;SDS011;702;49.466;11.086;2023-03-16T00:24:41;14.00;;;10.30;;
1414;SDS011;702;49.466;11.086;2023-03-16T00:27:09;18.10;;;10.50;;
1414;SDS011;702;49.466;11.086;2023-03-16T00:29:39;15.13;;;11.50;;
1414;SDS011;702;49.466;11.086;2023-03-16T00:32:12;18.87;;;11.20;;
1414;SDS011;702;49.466;11.086;2023-03-16T00:34:42;17.30;;;11.50;;
1414;SDS011;702;49.466;11.086;2023-03-16T00:37:10;15.77;;;11.27;;
1414;SDS011;702;49.466;11.086;2023-03-16T00:39:39;12.37;;;10.40;;
1414;SDS011;702;49.466;11.086;2023-03-16T00:42:09;16.23;;;11.80;;
1414;SDS011;702;49.466;11.086;2023-03-16T00:44:38;13.60;;;10.30;;
1414;SDS011;702;49.466;11.086;2023-03-16T00:47:09;18.47;;;12.60;;
1414;SDS011;702;49.466;11.086;2023-03-16T00:49:38;17.30;;;11.43;;
1414;SDS011;702;49.466;11.086;2023-03-16T00:52:07;15.40;;;11.03;;
1414;SDS011;702;49.466;11.086;2023-03-16T00:54:39;16.80;;;12.07;;
1414;SDS011;702;49.466;11.086;2023-03-16T00:57:08;18.00;;;13.13;;
1414;SDS011;702;49.466;11.086;2023-03-16T00:59:36;21.00;;;13.90;;
1414;SDS011;702;49.466;11.086;2023-03-16T01:02:04;16.37;;;11.67;;
1414;SDS011;702;49.466;11.086;2023-03-16T01:04:34;21.97;;;13.37;;
1414;SDS011;702;49.466;11.086;2023-03-16T01:07:04;16.80;;;12.00;;
1414;SDS011;702;49.466;11.086;2023-03-16T01:09:36;19.93;;;12.40;;
1414;SDS011;702;49.466;11.086;2023-03-16T01:12:04;20.50;;;13.43;;
1414;SDS011;702;49.466;11.086;2023-03-16T01:14:34;21.40;;;13.33;;
1414;SDS011;702;49.466;11.086;2023-03-16T01:17:02;18.63;;;11.33;;
1414;SDS011;702;49.466;11.086;2023-03-16T01:19:34;19.63;;;12.27;;
1414;SDS011;702;49.466;11.086;2023-03-16T01:22:02;24.40;;;12.73;;
1414;SDS011;702;49.466;11.086;2023-03-16T01:24:31;22.03;;;13.70;;
1414;SDS011;702;49.466;11.086;2023-03-16T01:26:59;22.83;;;13.00;;
1414;SDS011;702;49.466;11.086;2023-03-16T01:29:26;20.80;;;13.13;;
1414;SDS011;702;49.466;11.086;2023-03-16T01:31:53;18.90;;;12.10;;
1414;SDS011;702;49.466;11.086;2023-03-16T01:34:21;24.57;;;14.57;;
1414;SDS011;702;49.466;11.086;2023-03-16T01:36:50;24.43;;;13.77;;
1414;SDS011;702;49.466;11.086;2023-03-16T01:39:19;18.23;;;12.90;;
1414;SDS011;702;49.466;11.086;2023-03-16T01:41:46;25.17;;;14.53;;
1414;SDS011;702;49.466;11.086;2023-03-16T01:44:15;24.40;;;14.10;;
1414;SDS011;702;49.466;11.086;2023-03-16T01:46:46;19.83;;;14.87;;
1414;SDS011;702;49.466;11.086;2023-03-16T01:49:15;23.63;;;14.30;;
1414;SDS011;702;49.466;11.086;2023-03-16T01:51:45;23.50;;;14.30;;
1414;SDS011;702;49.466;11.086;2023-03-16T01:54:20;21.53;;;14.57;;
1414;SDS011;702;49.466;11.086;2023-03-16T01:56:55;24.00;;;15.30;;
1414;SDS011;702;49.466;11.086;2023-03-16T01:59:29;37.23;;;15.90;;
1414;SDS011;702;49.466;11.086;2023-03-16T02:02:00;26.60;;;14.50;;
1414;SDS011;702;49.466;11.086;2023-03-16T02:04:33;24.40;;;14.97;;
1414;SDS011;702;49.466;11.086;2023-03-16T02:07:10;23.90;;;13.93;;
1414;SDS011;702;49.466;11.086;2023-03-16T02:09:41;23.40;;;15.60;;
1414;SDS011;702;49.466;11.086;2023-03-16T02:12:12;20.60;;;14.33;;
1414;SDS011;702;49.466;11.086;2023-03-16T02:14:43;23.03;;;12.80;;
1414;SDS011;702;49.466;11.086;2023-03-16T02:17:11;24.60;;;14.77;;
1414;SDS011;702;49.466;11.086;2023-03-16T02:19:43;20.07;;;12.57;;
1414;SDS011;702;49.466;11.086;2023-03-16T02:22:20;18.30;;;12.13;;
1414;SDS011;702;49.466;11.086;2023-03-16T02:24:50;15.73;;;11.23;;
1414;SDS011;702;49.466;11.086;2023-03-16T02:27:22;18.17;;;12.27;;
1414;SDS011;702;49.466;11.086;2023-03-16T02:30:02;16.40;;;11.13;;
1414;SDS011;702;49.466;11.086;2023-03-16T02:32:33;16.00;;;11.50;;
1414;SDS011;702;49.466;11.086;2023-03-16T02:35:03;18.20;;;13.07;;
1414;SDS011;702;49.466;11.086;2023-03-16T02:37:34;18.60;;;12.07;;
1414;SDS011;702;49.466;11.086;2023-03-16T02:40:12;18.40;;;11.77;;
1414;SDS011;702;49.466;11.086;2023-03-16T02:42:47;21.57;;;13.00;;
1414;SDS011;702;49.466;11.086;2023-03-16T02:45:23;19.50;;;11.17;;
1414;SDS011;702;49.466;11.086;2023-03-16T02:47:53;18.13;;;11.23;;
1414;SDS011;702;49.466;11.086;2023-03-16T02:50:22;16.93;;;11.03;;
1414;SDS011;702;49.466;11.086;2023-03-16T02:52:50;16.70;;;11.30;;
1414;SDS011;702;49.466;11.086;2023-03-16T02:55:17;15.47;;;11.40;;
1414;SDS011;702;49.466;11.086;2023-03-16T02:57:45;18.83;;;12.47;;
1414;SDS011;702;49.466;11.086;2023-03-16T03:00:13;19.23;;;11.60;;
1414;SDS011;702;49.466;11.086;2023-03-16T03:02:44;22.13;;;13.20;;
1414;SDS011;702;49.466;11.086;2023-03-16T03:05:12;19.47;;;13.47;;
1414;SDS011;702;49.466;11.086;2023-03-16T03:07:39;20.17;;;13.37;;
1414;SDS011;702;49.466;11.086;2023-03-16T03:10:07;23.57;;;13.77;;
1414;SDS011;702;49.466;11.086;2023-03-16T03:12:36;18.47;;;11.60;;
1414;SDS011;702;49.466;11.086;2023-03-16T03:15:03;20.07;;;13.93;;
1414;SDS011;702;49.466;11.086;2023-03-16T03:17:33;18.80;;;13.10;;
1414;SDS011;702;49.466;11.086;2023-03-16T03:20:03;21.17;;;12.77;;
1414;SDS011;702;49.466;11.086;2023-03-16T03:22:37;20.90;;;12.93;;
1414;SDS011;702;49.466;11.086;2023-03-16T03:25:05;17.20;;;11.50;;
1414;SDS011;702;49.466;11.086;2023-03-16T03:27:33;20.07;;;12.73;;
1414;SDS011;702;49.466;11.086;2023-03-16T03:30:01;18.07;;;12.57;;
1414;SDS011;702;49.466;11.086;2023-03-16T03:32:30;20.53;;;13.33;;
1414;SDS011;702;49.466;11.086;2023-03-16T03:34:57;21.97;;;13.30;;
1414;SDS011;702;49.466;11.086;2023-03-16T03:37:27;19.50;;;13.37;;
1414;SDS011;702;49.466;11.086;2023-03-16T03:39:55;21.70;;;12.87;;
1414;SDS011;702;49.466;11.086;2023-03-16T03:42:22;21.93;;;14.83;;
1414;SDS011;702;49.466;11.086;2023-03-16T03:44:49;21.67;;;13.63;;
1414;SDS011;702;49.466;11.086;2023-03-16T03:47:17;20.60;;;13.83;;
1414;SDS011;702;49.466;11.086;2023-03-16T03:49:45;24.93;;;16.00;;
1414;SDS011;702;49.466;11.086;2023-03-16T03:52:12;23.97;;;15.23;;
1414;SDS011;702;49.466;11.086;2023-03-16T03:54:41;28.97;;;14.73;;
1414;SDS011;702;49.466;11.086;2023-03-16T03:57:08;23.10;;;13.77;;
1414;SDS011;702;49.466;11.086;2023-03-16T03:59:36;26.70;;;15.00;;
1414;SDS011;702;49.466;11.086;2023-03-16T04:02:07;25.70;;;15.10;;
1414;SDS011;702;49.466;11.086;2023-03-16T04:04:35;26.30;;;14.00;;
1414;SDS011;702;49.466;11.086;2023-03-16T04:07:03;26.27;;;13.87;;
1414;SDS011;702;49.466;11.086;2023-03-16T04:09:30;27.43;;;15.20;;
1414;SDS011;702;49.466;11.086;2023-03-16T04:11:59;29.27;;;14.60;;
1414;SDS011;702;49.466;11.086;2023-03-16T04:14:27;22.87;;;13.37;;
1414;SDS011;702;49.466;11.086;2023-03-16T04:16:55;24.67;;;12.77;;
1414;SDS011;702;49.466;11.086;2023-03-16T04:19:23;21.63;;;13.40;;
1414;SDS011;702;49.466;11.086;2023-03-16T04:21:50;21.70;;;13.03;;
1414;SDS011;702;49.466;11.086;2023-03-16T04:24:18;20.47;;;13.33;;
1414;SDS011;702;49.466;11.086;2023-03-16T04:26:46;18.30;;;12.50;;
1414;SDS011;702;49.466;11.086;2023-03-16T04:29:15;22.10;;;12.80;;
1414;SDS011;702;49.466;11.086;2023-03-16T04:31:42;18.37;;;11.90;;
1414;SDS011;702;49.466;11.086;2023-03-16T04:34:10;20.60;;;12.97;;
1414;SDS011;702;49.466;11.086;2023-03-16T04:36:38;20.17;;;12.23;;
1414;SDS011;702;49.466;11.086;2023-03-16T04:39:05;19.67;;;12.30;;
1414;SDS011;702;49.466;11.086;2023-03-16T04:41:33;20.17;;;12.77;;
1414;SDS011;702;49.466;11.086;2023-03-16T04:44:00;19.97;;;12.13;;
1414;SDS011;702;49.466;11.086;2023-03-16T04:46:30;18.83;;;11.87;;
1414;SDS011;702;49.466;11.086;2023-03-16T04:48:57;16.53;;;11.60;;
1414;SDS011;702;49.466;11.086;2023-03-16T04:51:26;24.07;;;13.03;;
1414;SDS011;702;49.466;11.086;2023-03-16T04:53:54;20.00;;;12.30;;
1414;SDS011;702;49.466;11.086;2023-03-16T04:56:22;20.57;;;11.80;;
1414;SDS011;702;49.466;11.086;2023-03-16T04:58:49;15.47;;;10.40;;
1414;SDS011;702;49.466;11.086;2023-03-16T05:01:16;21.17;;;12.17;;
1414;SDS011;702;49.466;11.086;2023-03-16T05:03:45;16.63;;;11.27;;
1414;SDS011;702;49.466;11.086;2023-03-16T05:06:14;18.30;;;11.63;;
1414;SDS011;702;49.466;11.086;2023-03-16T05:08:41;18.03;;;11.43;;
1414;SDS011;702;49.466;11.086;2023-03-16T05:11:09;12.87;;;9.70;;
1414;SDS011;702;49.466;11.086;2023-03-16T05:13:36;16.23;;;11.10;;
1414;SDS011;702;49.466;11.086;2023-03-16T05:16:03;15.47;;;10.90;;
1414;SDS011;702;49.466;11.086;2023-03-16T05:18:31;17.40;;;11.67;;
1414;SDS011;702;49.466;11.086;2023-03-16T05:21:00;19.97;;;12.03;;
1414;SDS011;702;49.466;11.086;2023-03-16T05:23:27;16.80;;;10.60;;
1414;SDS011;702;49.466;11.086;2023-03-16T05:25:55;16.93;;;11.07;;
1414;SDS011;702;49.466;11.086;2023-03-16T05:28:25;14.87;;;10.30;;
1414;SDS011;702;49.466;11.086;2023-03-16T05:30:52;20.13;;;12.07;;
1414;SDS011;702;49.466;11.086;2023-03-16T05:33:20;18.93;;;10.40;;
1414;SDS011;702;49.466;11.086;2023-03-16T05:35:49;15.87;;;10.83;;
1414;SDS011;702;49.466;11.086;2023-03-16T05:38:18;17.30;;;11.70;;
1414;SDS011;702;49.466;11.086;2023-03-16T05:40:45;18.97;;;10.70;;
1414;SDS011;702;49.466;11.086;2023-03-16T05:43:17;18.80;;;11.83;;
1414;SDS011;702;49.466;11.086;2023-03-16T05:45:45;16.33;;;11.90;;
1414;SDS011;702;49.466;11.086;2023-03-16T05:48:13;20.07;;;9.70;;
1414;SDS011;702;49.466;11.086;2023-03-16T05:50:41;18.17;;;12.23;;
1414;SDS011;702;49.466;11.086;2023-03-16T05:53:10;15.67;;;9.43;;
1414;SDS011;702;49.466;11.086;2023-03-16T05:55:39;17.33;;;9.70;;
1414;SDS011;702;49.466;11.086;2023-03-16T05:58:06;14.50;;;8.77;;
1414;SDS011;702;49.466;11.086;2023-03-16T06:00:36;15.03;;;9.63;;
1414;SDS011;702;49.466;11.086;2023-03-16T06:03:04;15.17;;;9.97;;
1414;SDS011;702;49.466;11.086;2023-03-16T06:05:31;18.67;;;10.20;;
1414;SDS011;702;49.466;11.086;2023-03-16T06:07:59;12.83;;;9.30;;
1414;SDS011;702;49.466;11.086;2023-03-16T06:10:26;15.40;;;11.07;;
1414;SDS011;702;49.466;11.086;2023-03-16T06:12:55;17.90;;;11.07;;
1414;SDS011;702;49.466;11.086;2023-03-16T06:15:22;14.77;;;10.47;;
1414;SDS011;702;49.466;11.086;2023-03-16T06:17:50;13.80;;;9.83;;
1414;SDS011;702;49.466;11.086;2023-03-16T06:20:18;13.33;;;9.70;;
1414;SDS011;702;49.466;11.086;2023-03-16T06:22:46;14.97;;;10.63;;
1414;SDS011;702;49.466;11.086;2023-03-16T06:25:13;13.50;;;10.27;;
1414;SDS011;702;49.466;11.086;2023-03-16T06:27:41;14.83;;;10.03;;
1414;SDS011;702;49.466;11.086;2023-03-16T06:30:11;13.07;;;9.00;;
1414;SDS011;702;49.466;11.086;2023-03-16T06:32:40;14.47;;;10.53;;
1414;SDS011;702;49.466;11.086;2023-03-16T06:35:09;18.50;;;11.23;;
1414;SDS011;702;49.466;11.086;2023-03-16T06:37:37;13.93;;;9.93;;
1414;SDS011;702;49.466;11.086;2023-03-16T06:40:06;12.87;;;8.13;;
1414;SDS011;702;49.466;11.086;2023-03-16T06:42:35;13.83;;;9.60;;
1414;SDS011;702;49.466;11.086;2023-03-16T06:45:02;10.83;;;8.27;;
1414;SDS011;702;49.466;11.086;2023-03-16T06:47:32;13.27;;;8.33;;
1414;SDS011;702;49.466;11.086;2023-03-16T06:49:59;15.37;;;9.40;;
1414;SDS011;702;49.466;11.086;2023-03-16T06:52:26;15.53;;;9.80;;
1414;SDS011;702;49.466;11.086;2023-03-16T06:54:54;11.23;;;8.50;;
1414;SDS011;702;49.466;11.086;2023-03-16T06:57:23;15.77;;;8.60;;
1414;SDS011;702;49.466;11.086;2023-03-16T06:59:50;13.63;;;8.57;;
1414;SDS011;702;49.466;11.086;2023-03-16T07:02:17;16.73;;;9.47;;
1414;SDS011;702;49.466;11.086;2023-03-16T07:04:48;10.93;;;8.07;;
1414;SDS011;702;49.466;11.086;2023-03-16T07:07:15;10.83;;;8.07;;
1414;SDS011;702;49.466;11.086;2023-03-16T07:09:43;12.10;;;8.40;;
1414;SDS011;702;49.466;11.086;2023-03-16T07:12:11;10.80;;;8.07;;
1414;SDS011;702;49.466;11.086;2023-03-16T07:14:38;11.67;;;8.83;;
1414;SDS011;702;49.466;11.086;2023-03-16T07:17:06;11.60;;;8.60;;
1414;SDS011;702;49.466;11.086;2023-03-16T07:19:33;13.50;;;8.37;;
1414;SDS011;702;49.466;11.086;2023-03-16T07:22:02;11.17;;;8.03;;
1414;SDS011;702;49.466;11.086;2023-03-16T07:24:29;11.77;;;8.50;;
1414;SDS011;702;49.466;11.086;2023-03-16T07:26:57;12.87;;;9.63;;
1414;SDS011;702;49.466;11.086;2023-03-16T07:29:24;14.10;;;9.70;;
1414;SDS011;702;49.466;11.086;2023-03-16T07:31:51;15.00;;;9.23;;
1414;SDS011;702;49.466;11.086;2023-03-16T07:34:18;11.60;;;8.00;;
1414;SDS011;702;49.466;11.086;2023-03-16T07:36:46;9.60;;;7.80;;
1414;SDS011;702;49.466;11.086;2023-03-16T07:39:18;11.13;;;7.70;;
1414;SDS011;702;49.466;11.086;2023-03-16T07:41:46;11.03;;;8.10;;
1414;SDS011;702;49.466;11.086;2023-03-16T07:44:13;10.63;;;7.83;;
1414;SDS011;702;49.466;11.086;2023-03-16T07:46:40;11.20;;;8.80;;
1414;SDS011;702;49.466;11.086;2023-03-16T07:49:08;10.73;;;8.10;;
1414;SDS011;702;49.466;11.086;2023-03-16T07:51:36;11.67;;;8.00;;
1414;SDS011;702;49.466;11.086;2023-03-16T07:54:03;9.90;;;8.57;;
1414;SDS011;702;49.466;11.086;2023-03-16T07:56:32;12.00;;;8.97;;
1414;SDS011;702;49.466;11.086;2023-03-16T07:58:59;10.17;;;7.90;;
1414;SDS011;702;49.466;11.086;2023-03-16T08:01:27;10.90;;;8.30;;
1414;SDS011;702;49.466;11.086;2023-03-16T08:03:58;13.53;;;8.50;;
1414;SDS011;702;49.466;11.086;2023-03-16T08:06:28;12.83;;;8.30;;
1414;SDS011;702;49.466;11.086;2023-03-16T08:08:55;12.33;;;7.20;;
1414;SDS011;702;49.466;11.086;2023-03-16T08:11:23;8.93;;;7.93;;
1414;SDS011;702;49.466;11.086;2023-03-16T08:13:52;11.43;;;8.43;;
1414;SDS011;702;49.466;11.086;2023-03-16T08:16:20;11.27;;;7.20;;
1414;SDS011;702;49.466;11.086;2023-03-16T08:18:49;11.60;;;7.87;;
1414;SDS011;702;49.466;11.086;2023-03-16T08:21:17;12.10;;;8.10;;
1414;SDS011;702;49.466;11.086;2023-03-16T08:23:48;9.73;;;7.30;;
1414;SDS011;702;49.466;11.086;2023-03-16T08:26:17;12.47;;;8.30;;
1414;SDS011;702;49.466;11.086;2023-03-16T08:28:45;9.33;;;7.07;;
1414;SDS011;702;49.466;11.086;2023-03-16T08:31:17;10.47;;;6.33;;
1414;SDS011;702;49.466;11.086;2023-03-16T08:33:46;8.93;;;6.87;;
1414;SDS011;702;49.466;11.086;2023-03-16T08:36:15;9.47;;;6.00;;
1414;SDS011;702;49.466;11.086;2023-03-16T08:38:43;9.63;;;5.93;;
1414;SDS011;702;49.466;11.086;2023-03-16T08:41:11;9.40;;;5.63;;
1414;SDS011;702;49.466;11.086;2023-03-16T08:43:40;8.33;;;6.00;;
1414;SDS011;702;49.466;11.086;2023-03-16T08:46:09;6.93;;;4.70;;
1414;SDS011;702;49.466;11.086;2023-03-16T08:48:38;6.30;;;4.90;;
1414;SDS011;702;49.466;11.086;2023-03-16T08:51:06;4.73;;;4.23;;
1414;SDS011;702;49.466;11.086;2023-03-16T08:53:34;9.23;;;4.60;;
1414;SDS011;702;49.466;11.086;2023-03-16T08:56:02;7.80;;;4.73;;
1414;SDS011;702;49.466;11.086;2023-03-16T08:58:31;4.30;;;4.00;;
1414;SDS011;702;49.466;11.086;2023-03-16T09:01:00;4.27;;;3.50;;
1414;SDS011;702;49.466;11.086;2023-03-16T09:03:29;4.60;;;3.50;;
1414;SDS011;702;49.466;11.086;2023-03-16T09:06:00;5.47;;;3.30;;
1414;SDS011;702;49.466;11.086;2023-03-16T09:08:30;7.80;;;4.50;;
1414;SDS011;702;49.466;11.086;2023-03-16T09:10:58;4.27;;;3.87;;
1414;SDS011;702;49.466;11.086;2023-03-16T09:13:27;4.20;;;3.73;;
1414;SDS011;702;49.466;11.086;2023-03-16T09:15:54;4.33;;;3.40;;
1414;SDS011;702;49.466;11.086;2023-03-16T09:18:22;5.27;;;4.13;;
1414;SDS011;702;49.466;11.086;2023-03-16T09:20:51;5.07;;;3.73;;
1414;SDS011;702;49.466;11.086;2023-03-16T09:23:19;6.40;;;4.07;;
1414;SDS011;702;49.466;11.086;2023-03-16T09:25:46;4.70;;;3.50;;
1414;SDS011;702;49.466;11.086;2023-03-16T09:28:15;3.87;;;3.03;;
1414;SDS011;702;49.466;11.086;2023-03-16T09:30:42;4.50;;;3.60;;
1414;SDS011;702;49.466;11.086;2023-03-16T09:33:10;3.33;;;3.00;;
1414;SDS011;702;49.466;11.086;2023-03-16T09:35:37;3.83;;;3.33;;
1414;SDS011;702;49.466;11.086;2023-03-16T09:38:05;4.60;;;3.63;;
1414;SDS011;702;49.466;11.086;2023-03-16T09:40:33;4.30;;;3.47;;
1414;SDS011;702;49.466;11.086;2023-03-16T09:43:09;9.97;;;4.00;;
1414;SDS011;702;49.466;11.086;2023-03-16T09:46:01;5.40;;;3.37;;
1414;SDS011;702;49.466;11.086;2023-03-16T09:48:35;4.40;;;2.80;;
1414;SDS011;702;49.466;11.086;2023-03-16T09:51:06;5.30;;;3.10;;
1414;SDS011;702;49.466;11.086;2023-03-16T09:53:40;2.83;;;2.53;;
1414;SDS011;702;49.466;11.086;2023-03-16T09:59:15;3.93;;;3.23;;
1414;SDS011;702;49.466;11.086;2023-03-16T10:02:27;5.10;;;3.40;;
1414;SDS011;702;49.466;11.086;2023-03-16T10:05:22;5.50;;;3.87;;
1414;SDS011;702;49.466;11.086;2023-03-16T10:07:52;6.17;;;2.63;;
1414;SDS011;702;49.466;11.086;2023-03-16T10:10:37;4.40;;;3.40;;
1414;SDS011;702;49.466;11.086;2023-03-16T10:13:45;5.63;;;2.97;;
1414;SDS011;702;49.466;11.086;2023-03-16T10:16:17;4.40;;;3.27;;
1414;SDS011;702;49.466;11.086;2023-03-16T10:18:52;3.23;;;2.93;;
1414;SDS011;702;49.466;11.086;2023-03-16T10:21:26;3.10;;;2.60;;
1414;SDS011;702;49.466;11.086;2023-03-16T10:23:57;3.43;;;2.80;;
1414;SDS011;702;49.466;11.086;2023-03-16T10:26:30;3.33;;;2.80;;
1414;SDS011;702;49.466;11.086;2023-03-16T10:29:07;2.43;;;1.90;;
1414;SDS011;702;49.466;11.086;2023-03-16T10:31:39;3.77;;;2.00;;
1414;SDS011;702;49.466;11.086;2023-03-16T10:34:07;4.50;;;2.33;;
1414;SDS011;702;49.466;11.086;2023-03-16T10:36:37;2.87;;;1.80;;
1414;SDS011;702;49.466;11.086;2023-03-16T10:39:08;2.77;;;2.33;;
1414;SDS011;702;49.466;11.086;2023-03-16T10:41:38;2.50;;;1.67;;
1414;SDS011;702;49.466;11.086;2023-03-16T10:44:10;1.93;;;1.43;;
1414;SDS011;702;49.466;11.086;2023-03-16T10:46:40;2.37;;;1.67;;
1414;SDS011;702;49.466;11.086;2023-03-16T10:49:18;3.80;;;2.50;;
1414;SDS011;702;49.466;11.086;2023-03-16T10:51:49;1.70;;;1.60;;
1414;SDS011;702;49.466;11.086;2023-03-16T10:54:22;2.90;;;1.47;;
1414;SDS011;702;49.466;11.086;2023-03-16T10:56:54;5.10;;;1.90;;
1414;SDS011;702;49.466;11.086;2023-03-16T10:59:31;4.60;;;2.90;;
1414;SDS011;702;49.466;11.086;2023-03-16T11:02:07;4.60;;;2.40;;
1414;SDS011;702;49.466;11.086;2023-03-16T11:04:43;7.70;;;2.43;;
1414;SDS011;702;49.466;11.086;2023-03-16T11:07:14;5.03;;;2.50;;
1414;SDS011;702;49.466;11.086;2023-03-16T11:09:43;5.63;;;2.67;;
1414;SDS011;702;49.466;11.086;2023-03-16T11:12:20;4.63;;;2.30;;
1414;SDS011;702;49.466;11.086;2023-03-16T11:14:52;2.87;;;2.63;;
1414;SDS011;702;49.466;11.086;2023-03-16T11:17:22;4.43;;;3.07;;
1414;SDS011;702;49.466;11.086;2023-03-16T11:19:57;3.57;;;2.33;;
1414;SDS011;702;49.466;11.086;2023-03-16T11:22:39;2.47;;;2.00;;
1414;SDS011;702;49.466;11.086;2023-03-16T11:25:11;3.43;;;2.70;;
1414;SDS011;702;49.466;11.086;2023-03-16T11:27:43;4.60;;;2.43;;
1414;SDS011;702;49.466;11.086;2023-03-16T11:30:18;2.17;;;2.00;;
1414;SDS011;702;49.466;11.086;2023-03-16T11:32:53;2.40;;;1.93;;
1414;SDS011;702;49.466;11.086;2023-03-16T11:35:21;2.77;;;2.57;;
1414;SDS011;702;49.466;11.086;2023-03-16T11:37:59;3.97;;;2.53;;
1414;SDS011;702;49.466;11.086;2023-03-16T11:40:40;4.10;;;2.50;;
1414;SDS011;702;49.466;11.086;2023-03-16T11:43:23;5.50;;;2.43;;
1414;SDS011;702;49.466;11.086;2023-03-16T11:46:08;3.93;;;2.20;;
1414;SDS011;702;49.466;11.086;2023-03-16T11:48:41;4.27;;;2.20;;
1414;SDS011;702;49.466;11.086;2023-03-16T11:51:21;2.87;;;2.20;;
1414;SDS011;702;49.466;11.086;2023-03-16T11:54:02;3.00;;;2.07;;
1414;SDS011;702;49.466;11.086;2023-03-16T11:56:47;7.10;;;3.13;;
1414;SDS011;702;49.466;11.086;2023-03-16T11:59:31;4.37;;;3.20;;
1414;SDS011;702;49.466;11.086;2023-03-16T12:05:27;3.30;;;2.03;;
1414;SDS011;702;49.466;11.086;2023-03-16T12:08:11;3.37;;;2.57;;
1414;SDS011;702;49.466;11.086;2023-03-16T12:10:55;6.23;;;2.60;;
1414;SDS011;702;49.466;11.086;2023-03-16T12:13:38;4.80;;;2.37;;
1414;SDS011;702;49.466;11.086;2023-03-16T12:16:22;6.17;;;2.40;;
1414;SDS011;702;49.466;11.086;2023-03-16T12:18:58;3.00;;;2.70;;
1414;SDS011;702;49.466;11.086;2023-03-16T12:21:27;3.20;;;2.67;;
1414;SDS011;702;49.466;11.086;2023-03-16T12:23:59;3.60;;;2.70;;
1414;SDS011;702;49.466;11.086;2023-03-16T12:26:31;5.97;;;2.80;;
1414;SDS011;702;49.466;11.086;2023-03-16T12:29:06;3.53;;;2.97;;
1414;SDS011;702;49.466;11.086;2023-03-16T12:31:45;3.00;;;2.60;;
1414;SDS011;702;49.466;11.086;2023-03-16T12:34:24;3.53;;;3.23;;
1414;SDS011;702;49.466;11.086;2023-03-16T12:37:07;3.97;;;3.37;;
1414;SDS011;702;49.466;11.086;2023-03-16T12:39:56;4.30;;;3.13;;
1414;SDS011;702;49.466;11.086;2023-03-16T12:42:39;3.20;;;2.90;;
1414;SDS011;702;49.466;11.086;2023-03-16T12:45:17;9.60;;;6.00;;
1414;SDS011;702;49.466;11.086;2023-03-16T12:47:57;3.40;;;2.70;;
1414;SDS011;702;49.466;11.086;2023-03-16T12:50:46;7.97;;;3.37;;
1414;SDS011;702;49.466;11.086;2023-03-16T12:53:27;4.33;;;3.13;;
1414;SDS011;702;49.466;11.086;2023-03-16T12:56:07;14.87;;;4.00;;
1414;SDS011;702;49.466;11.086;2023-03-16T12:58:39;3.57;;;2.83;;
1414;SDS011;702;49.466;11.086;2023-03-16T13:01:10;3.40;;;2.70;;
1414;SDS011;702;49.466;11.086;2023-03-16T13:03:41;3.87;;;2.90;;
1414;SDS011;702;49.466;11.086;2023-03-16T13:06:16;3.97;;;3.57;;
1414;SDS011;702;49.466;11.086;2023-03-16T13:08:49;4.00;;;3.60;;
1414;SDS011;702;49.466;11.086;2023-03-16T13:11:20;3.93;;;3.50;;
1414;SDS011;702;49.466;11.086;2023-03-16T13:13:49;3.70;;;3.40;;
1414;SDS011;702;49.466;11.086;2023-03-16T13:16:22;3.87;;;3.27;;
1414;SDS011;702;49.466;11.086;2023-03-16T13:18:52;3.53;;;2.80;;
1414;SDS011;702;49.466;11.086;2023-03-16T13:21:32;3.10;;;2.67;;
1414;SDS011;702;49.466;11.086;2023-03-16T13:24:12;4.50;;;2.97;;
1414;SDS011;702;49.466;11.086;2023-03-16T13:26:54;3.17;;;2.53;;
1414;SDS011;702;49.466;11.086;2023-03-16T13:29:28;3.67;;;3.07;;
1414;SDS011;702;49.466;11.086;2023-03-16T13:31:57;3.40;;;3.07;;
1414;SDS011;702;49.466;11.086;2023-03-16T13:34:28;5.50;;;2.80;;
1414;SDS011;702;49.466;11.086;2023-03-16T13:37:11;3.70;;;2.70;;
1414;SDS011;702;49.466;11.086;2023-03-16T13:39:41;5.33;;;2.90;;
1414;SDS011;702;49.466;11.086;2023-03-16T13:42:18;5.00;;;2.60;;
1414;SDS011;702;49.466;11.086;2023-03-16T13:44:55;3.17;;;2.83;;
1414;SDS011;702;49.466;11.086;2023-03-16T13:47:26;3.90;;;2.57;;
1414;SDS011;702;49.466;11.086;2023-03-16T13:49:57;3.90;;;3.40;;
1414;SDS011;702;49.466;11.086;2023-03-16T13:52:30;2.67;;;2.43;;
1414;SDS011;702;49.466;11.086;2023-03-16T13:55:00;4.80;;;2.80;;
1414;SDS011;702;49.466;11.086;2023-03-16T13:57:37;2.87;;;2.67;;
1414;SDS011;702;49.466;11.086;2023-03-16T14:00:12;2.90;;;2.70;;
1414;SDS011;702;49.466;11.086;2023-03-16T14:02:44;2.97;;;2.77;;
1414;SDS011;702;49.466;11.086;2023-03-16T14:05:16;3.70;;;3.00;;
1414;SDS011;702;49.466;11.086;2023-03-16T14:07:48;3.20;;;2.87;;
1414;SDS011;702;49.466;11.086;2023-03-16T14:10:17;3.00;;;2.77;;
1414;SDS011;702;49.466;11.086;2023-03-16T14:12:49;4.90;;;3.23;;
1414;SDS011;702;49.466;11.086;2023-03-16T14:15:18;5.00;;;2.77;;
1414;SDS011;702;49.466;11.086;2023-03-16T14:17:46;5.00;;;3.30;;
1414;SDS011;702;49.466;11.086;2023-03-16T14:20:16;4.03;;;2.40;;
1414;SDS011;702;49.466;11.086;2023-03-16T14:22:49;3.30;;;2.57;;
1414;SDS011;702;49.466;11.086;2023-03-16T14:25:21;3.30;;;3.00;;
1414;SDS011;702;49.466;11.086;2023-03-16T14:27:57;6.97;;;2.90;;
1414;SDS011;702;49.466;11.086;2023-03-16T14:30:30;5.33;;;2.60;;
1414;SDS011;702;49.466;11.086;2023-03-16T14:32:58;3.00;;;2.80;;
1414;SDS011;702;49.466;11.086;2023-03-16T14:35:27;6.20;;;4.00;;
1414;SDS011;702;49.466;11.086;2023-03-16T14:38:06;3.80;;;3.20;;
1414;SDS011;702;49.466;11.086;2023-03-16T14:40:50;4.30;;;2.70;;
1414;SDS011;702;49.466;11.086;2023-03-16T14:43:19;4.33;;;3.33;;
1414;SDS011;702;49.466;11.086;2023-03-16T14:45:52;3.93;;;3.53;;
1414;SDS011;702;49.466;11.086;2023-03-16T14:48:20;6.20;;;3.50;;
1414;SDS011;702;49.466;11.086;2023-03-16T14:50:50;3.23;;;2.70;;
1414;SDS011;702;49.466;11.086;2023-03-16T14:53:21;3.40;;;3.10;;
1414;SDS011;702;49.466;11.086;2023-03-16T14:55:55;6.47;;;3.63;;
1414;SDS011;702;49.466;11.086;2023-03-16T14:58:25;3.00;;;2.60;;
1414;SDS011;702;49.466;11.086;2023-03-16T15:00:52;3.50;;;3.20;;
1414;SDS011;702;49.466;11.086;2023-03-16T15:03:21;3.63;;;3.27;;
1414;SDS011;702;49.466;11.086;2023-03-16T15:05:58;3.87;;;3.57;;
1414;SDS011;702;49.466;11.086;2023-03-16T15:08:28;4.77;;;3.37;;
1414;SDS011;702;49.466;11.086;2023-03-16T15:10:58;4.03;;;3.23;;
1414;SDS011;702;49.466;11.086;2023-03-16T15:13:31;4.07;;;2.97;;
1414;SDS011;702;49.466;11.086;2023-03-16T15:16:17;4.87;;;2.77;;
1414;SDS011;702;49.466;11.086;2023-03-16T15:18:47;3.57;;;3.10;;
1414;SDS011;702;49.466;11.086;2023-03-16T15:21:16;6.37;;;3.27;;
1414;SDS011;702;49.466;11.086;2023-03-16T15:23:48;5.10;;;3.63;;
1414;SDS011;702;49.466;11.086;2023-03-16T15:26:17;3.50;;;3.20;;
1414;SDS011;702;49.466;11.086;2023-03-16T15:28:50;3.90;;;3.57;;
1414;SDS011;702;49.466;11.086;2023-03-16T15:31:17;5.90;;;3.67;;
1414;SDS011;702;49.466;11.086;2023-03-16T15:33:45;5.63;;;3.70;;